sensor_id;sensor_type;location;lat;lon;timestamp;P1;durP1;ratioP1;P2;durP2;ratioP2
42846;SDS011;28495;49.916;14.536;2023-05-07T00:05:34;13.82;;;8.05;;
42846;SDS011;28495;49.916;14.536;2023-05-07T00:10:55;11.68;;;6.68;;
42846;SDS011;28495;49.916;14.536;2023-05-07T00:16:16;10.00;;;6.25;;
42846;SDS011;28495;49.916;14.536;2023-05-07T00:21:37;9.52;;;6.18;;
42846;SDS011;28495;49.916;14.536;2023-05-07T00:26:58;12.23;;;6.90;;
42846;SDS011;28495;49.916;14.536;2023-05-07T00:32:19;10.27;;;6.38;;
42846;SDS011;28495;49.916;14.536;2023-05-07T00:37:40;10.88;;;6.38;;
42846;SDS011;28495;49.916;14.536;2023-05-07T00:43:00;11.65;;;7.38;;
42846;SDS011;28495;49.916;14.536;2023-05-07T00:48:21;11.32;;;7.00;;
42846;SDS011;28495;49.916;14.536;2023-05-07T00:53:45;12.35;;;7.30;;
42846;SDS011;28495;49.916;14.536;2023-05-07T00:59:06;11.75;;;7.15;;
42846;SDS011;28495;49.916;14.536;2023-05-07T01:04:27;11.30;;;7.40;;
42846;SDS011;28495;49.916;14.536;2023-05-07T01:09:49;12.85;;;7.10;;
42846;SDS011;28495;49.916;14.536;2023-05-07T01:15:10;13.27;;;6.97;;
42846;SDS011;28495;49.916;14.536;2023-05-07T01:20:32;12.90;;;6.82;;
42846;SDS011;28495;49.916;14.536;2023-05-07T01:25:53;9.43;;;6.32;;
42846;SDS011;28495;49.916;14.536;2023-05-07T01:31:17;10.60;;;6.97;;
42846;SDS011;28495;49.916;14.536;2023-05-07T01:36:39;12.20;;;6.90;;
42846;SDS011;28495;49.916;14.536;2023-05-07T01:42:02;11.13;;;6.65;;
42846;SDS011;28495;49.916;14.536;2023-05-07T01:47:23;11.60;;;6.63;;
42846;SDS011;28495;49.916;14.536;2023-05-07T01:52:45;11.52;;;6.95;;
42846;SDS011;28495;49.916;14.536;2023-05-07T01:58:07;10.52;;;6.85;;
42846;SDS011;28495;49.916;14.536;2023-05-07T02:03:28;11.13;;;6.63;;
42846;SDS011;28495;49.916;14.536;2023-05-07T02:08:57;9.48;;;5.57;;
42846;SDS011;28495;49.916;14.536;2023-05-07T02:14:18;8.82;;;6.00;;
42846;SDS011;28495;49.916;14.536;2023-05-07T02:19:40;12.20;;;6.32;;
42846;SDS011;28495;49.916;14.536;2023-05-07T02:25:01;10.95;;;6.65;;
42846;SDS011;28495;49.916;14.536;2023-05-07T02:30:22;9.25;;;6.10;;
42846;SDS011;28495;49.916;14.536;2023-05-07T02:35:46;12.05;;;6.25;;
42846;SDS011;28495;49.916;14.536;2023-05-07T02:41:08;8.88;;;5.47;;
42846;SDS011;28495;49.916;14.536;2023-05-07T02:46:29;6.72;;;4.38;;
42846;SDS011;28495;49.916;14.536;2023-05-07T02:51:55;8.13;;;5.75;;
42846;SDS011;28495;49.916;14.536;2023-05-07T02:57:17;10.60;;;6.05;;
42846;SDS011;28495;49.916;14.536;2023-05-07T03:02:38;12.70;;;5.85;;
42846;SDS011;28495;49.916;14.536;2023-05-07T03:07:59;8.20;;;5.28;;
42846;SDS011;28495;49.916;14.536;2023-05-07T03:13:20;10.55;;;6.25;;
42846;SDS011;28495;49.916;14.536;2023-05-07T03:18:41;11.75;;;6.28;;
42846;SDS011;28495;49.916;14.536;2023-05-07T03:24:02;13.07;;;6.80;;
42846;SDS011;28495;49.916;14.536;2023-05-07T03:29:23;11.10;;;6.57;;
42846;SDS011;28495;49.916;14.536;2023-05-07T03:34:44;10.60;;;6.65;;
42846;SDS011;28495;49.916;14.536;2023-05-07T03:40:07;9.98;;;6.38;;
42846;SDS011;28495;49.916;14.536;2023-05-07T03:45:38;8.98;;;5.47;;
42846;SDS011;28495;49.916;14.536;2023-05-07T03:51:04;7.25;;;4.13;;
42846;SDS011;28495;49.916;14.536;2023-05-07T03:56:26;6.22;;;4.00;;
42846;SDS011;28495;49.916;14.536;2023-05-07T04:01:50;5.20;;;4.10;;
42846;SDS011;28495;49.916;14.536;2023-05-07T04:07:14;5.68;;;3.60;;
42846;SDS011;28495;49.916;14.536;2023-05-07T04:12:40;6.07;;;4.07;;
42846;SDS011;28495;49.916;14.536;2023-05-07T04:18:04;6.00;;;4.13;;
42846;SDS011;28495;49.916;14.536;2023-05-07T04:23:25;4.78;;;3.40;;
42846;SDS011;28495;49.916;14.536;2023-05-07T04:28:48;7.05;;;4.38;;
42846;SDS011;28495;49.916;14.536;2023-05-07T04:34:09;7.72;;;4.63;;
42846;SDS011;28495;49.916;14.536;2023-05-07T04:39:34;7.70;;;4.88;;
42846;SDS011;28495;49.916;14.536;2023-05-07T04:44:56;8.50;;;5.57;;
42846;SDS011;28495;49.916;14.536;2023-05-07T04:50:17;9.68;;;6.10;;
42846;SDS011;28495;49.916;14.536;2023-05-07T04:55:41;11.98;;;6.55;;
42846;SDS011;28495;49.916;14.536;2023-05-07T05:01:03;11.35;;;6.78;;
42846;SDS011;28495;49.916;14.536;2023-05-07T05:06:25;11.10;;;6.70;;
42846;SDS011;28495;49.916;14.536;2023-05-07T05:11:47;9.23;;;6.78;;
42846;SDS011;28495;49.916;14.536;2023-05-07T05:17:08;9.30;;;5.63;;
42846;SDS011;28495;49.916;14.536;2023-05-07T05:22:31;10.45;;;6.43;;
42846;SDS011;28495;49.916;14.536;2023-05-07T05:27:54;9.63;;;6.10;;
42846;SDS011;28495;49.916;14.536;2023-05-07T05:33:16;9.57;;;5.50;;
42846;SDS011;28495;49.916;14.536;2023-05-07T05:38:37;10.55;;;5.70;;
42846;SDS011;28495;49.916;14.536;2023-05-07T05:43:58;8.02;;;5.90;;
42846;SDS011;28495;49.916;14.536;2023-05-07T05:49:20;8.43;;;4.47;;
42846;SDS011;28495;49.916;14.536;2023-05-07T05:54:42;5.82;;;4.10;;
42846;SDS011;28495;49.916;14.536;2023-05-07T06:00:03;6.20;;;4.40;;
42846;SDS011;28495;49.916;14.536;2023-05-07T06:05:26;7.22;;;4.22;;
42846;SDS011;28495;49.916;14.536;2023-05-07T06:10:50;4.30;;;3.17;;
42846;SDS011;28495;49.916;14.536;2023-05-07T06:16:12;4.78;;;3.13;;
42846;SDS011;28495;49.916;14.536;2023-05-07T06:21:38;4.38;;;3.47;;
42846;SDS011;28495;49.916;14.536;2023-05-07T06:27:00;4.43;;;3.50;;
42846;SDS011;28495;49.916;14.536;2023-05-07T06:32:22;5.53;;;3.63;;
42846;SDS011;28495;49.916;14.536;2023-05-07T06:37:45;5.82;;;3.80;;
42846;SDS011;28495;49.916;14.536;2023-05-07T06:43:11;8.60;;;3.63;;
42846;SDS011;28495;49.916;14.536;2023-05-07T06:54:02;6.07;;;4.20;;
42846;SDS011;28495;49.916;14.536;2023-05-07T06:59:26;4.43;;;3.13;;
42846;SDS011;28495;49.916;14.536;2023-05-07T07:04:48;6.03;;;3.60;;
42846;SDS011;28495;49.916;14.536;2023-05-07T07:10:09;3.40;;;2.47;;
42846;SDS011;28495;49.916;14.536;2023-05-07T07:15:30;5.93;;;3.85;;
42846;SDS011;28495;49.916;14.536;2023-05-07T07:20:52;8.15;;;5.18;;
42846;SDS011;28495;49.916;14.536;2023-05-07T07:26:13;5.38;;;3.17;;
42846;SDS011;28495;49.916;14.536;2023-05-07T07:31:36;4.57;;;3.53;;
42846;SDS011;28495;49.916;14.536;2023-05-07T07:36:56;4.38;;;3.10;;
42846;SDS011;28495;49.916;14.536;2023-05-07T07:42:18;4.25;;;2.95;;
42846;SDS011;28495;49.916;14.536;2023-05-07T07:47:39;4.90;;;3.80;;
42846;SDS011;28495;49.916;14.536;2023-05-07T07:53:01;4.22;;;3.17;;
42846;SDS011;28495;49.916;14.536;2023-05-07T07:58:22;7.72;;;4.75;;
42846;SDS011;28495;49.916;14.536;2023-05-07T08:03:46;8.55;;;4.80;;
42846;SDS011;28495;49.916;14.536;2023-05-07T08:09:08;6.70;;;4.40;;
42846;SDS011;28495;49.916;14.536;2023-05-07T08:14:32;5.32;;;3.67;;
42846;SDS011;28495;49.916;14.536;2023-05-07T08:19:53;6.45;;;4.75;;
42846;SDS011;28495;49.916;14.536;2023-05-07T08:25:14;5.18;;;3.55;;
42846;SDS011;28495;49.916;14.536;2023-05-07T08:30:35;5.10;;;3.63;;
42846;SDS011;28495;49.916;14.536;2023-05-07T08:35:57;5.78;;;3.88;;
42846;SDS011;28495;49.916;14.536;2023-05-07T08:41:18;6.22;;;4.10;;
42846;SDS011;28495;49.916;14.536;2023-05-07T08:46:41;5.78;;;3.55;;
42846;SDS011;28495;49.916;14.536;2023-05-07T08:52:05;4.35;;;3.33;;
42846;SDS011;28495;49.916;14.536;2023-05-07T08:57:29;5.45;;;3.30;;
42846;SDS011;28495;49.916;14.536;2023-05-07T09:02:52;6.88;;;4.45;;
42846;SDS011;28495;49.916;14.536;2023-05-07T09:08:14;5.57;;;4.10;;
42846;SDS011;28495;49.916;14.536;2023-05-07T09:13:38;5.78;;;4.30;;
42846;SDS011;28495;49.916;14.536;2023-05-07T09:18:59;7.05;;;4.43;;
42846;SDS011;28495;49.916;14.536;2023-05-07T09:24:21;6.63;;;5.15;;
42846;SDS011;28495;49.916;14.536;2023-05-07T09:29:43;6.80;;;4.10;;
42846;SDS011;28495;49.916;14.536;2023-05-07T09:35:15;3.35;;;2.25;;
42846;SDS011;28495;49.916;14.536;2023-05-07T09:40:41;6.25;;;4.53;;
42846;SDS011;28495;49.916;14.536;2023-05-07T09:46:11;4.72;;;3.40;;
42846;SDS011;28495;49.916;14.536;2023-05-07T09:57:02;5.82;;;4.32;;
42846;SDS011;28495;49.916;14.536;2023-05-07T10:02:25;7.35;;;4.30;;
42846;SDS011;28495;49.916;14.536;2023-05-07T10:07:49;5.00;;;3.38;;
42846;SDS011;28495;49.916;14.536;2023-05-07T10:13:15;5.68;;;3.95;;
42846;SDS011;28495;49.916;14.536;2023-05-07T10:18:41;5.78;;;3.67;;
42846;SDS011;28495;49.916;14.536;2023-05-07T10:24:13;5.53;;;4.47;;
42846;SDS011;28495;49.916;14.536;2023-05-07T10:35:39;8.02;;;3.65;;
42846;SDS011;28495;49.916;14.536;2023-05-07T10:41:03;6.57;;;4.35;;
42846;SDS011;28495;49.916;14.536;2023-05-07T10:46:29;6.80;;;4.55;;
42846;SDS011;28495;49.916;14.536;2023-05-07T10:52:20;5.72;;;3.63;;
42846;SDS011;28495;49.916;14.536;2023-05-07T10:57:56;5.90;;;4.50;;
42846;SDS011;28495;49.916;14.536;2023-05-07T11:03:24;6.88;;;4.45;;
42846;SDS011;28495;49.916;14.536;2023-05-07T11:08:57;5.13;;;3.83;;
42846;SDS011;28495;49.916;14.536;2023-05-07T11:20:17;7.93;;;4.30;;
42846;SDS011;28495;49.916;14.536;2023-05-07T11:25:46;6.90;;;4.50;;
42846;SDS011;28495;49.916;14.536;2023-05-07T11:31:17;7.10;;;5.07;;
42846;SDS011;28495;49.916;14.536;2023-05-07T11:36:46;5.15;;;4.05;;
42846;SDS011;28495;49.916;14.536;2023-05-07T11:47:53;6.88;;;4.95;;
42846;SDS011;28495;49.916;14.536;2023-05-07T11:53:14;9.38;;;6.07;;
42846;SDS011;28495;49.916;14.536;2023-05-07T11:58:37;6.38;;;4.95;;
42846;SDS011;28495;49.916;14.536;2023-05-07T12:03:59;5.75;;;4.40;;
42846;SDS011;28495;49.916;14.536;2023-05-07T12:09:25;5.88;;;4.05;;
42846;SDS011;28495;49.916;14.536;2023-05-07T12:14:46;5.75;;;4.15;;
42846;SDS011;28495;49.916;14.536;2023-05-07T12:20:08;5.15;;;3.58;;
42846;SDS011;28495;49.916;14.536;2023-05-07T12:25:30;3.20;;;2.90;;
42846;SDS011;28495;49.916;14.536;2023-05-07T12:30:55;2.70;;;2.42;;
42846;SDS011;28495;49.916;14.536;2023-05-07T12:36:17;3.85;;;3.25;;
42846;SDS011;28495;49.916;14.536;2023-05-07T12:41:54;3.30;;;3.00;;
42846;SDS011;28495;49.916;14.536;2023-05-07T12:47:18;4.55;;;2.85;;
42846;SDS011;28495;49.916;14.536;2023-05-07T12:52:41;2.90;;;2.47;;
42846;SDS011;28495;49.916;14.536;2023-05-07T12:58:07;4.05;;;2.17;;
42846;SDS011;28495;49.916;14.536;2023-05-07T13:03:30;2.90;;;2.35;;
42846;SDS011;28495;49.916;14.536;2023-05-07T13:08:53;2.42;;;2.22;;
42846;SDS011;28495;49.916;14.536;2023-05-07T13:14:13;3.08;;;2.70;;
42846;SDS011;28495;49.916;14.536;2023-05-07T13:19:34;3.85;;;3.33;;
42846;SDS011;28495;49.916;14.536;2023-05-07T13:24:55;3.75;;;3.08;;
42846;SDS011;28495;49.916;14.536;2023-05-07T13:30:16;2.35;;;2.15;;
42846;SDS011;28495;49.916;14.536;2023-05-07T13:35:36;3.78;;;2.55;;
42846;SDS011;28495;49.916;14.536;2023-05-07T13:40:58;3.00;;;2.40;;
42846;SDS011;28495;49.916;14.536;2023-05-07T13:46:19;3.50;;;2.13;;
42846;SDS011;28495;49.916;14.536;2023-05-07T13:51:40;2.60;;;2.40;;
42846;SDS011;28495;49.916;14.536;2023-05-07T13:57:01;2.58;;;2.38;;
42846;SDS011;28495;49.916;14.536;2023-05-07T14:02:22;3.17;;;2.60;;
42846;SDS011;28495;49.916;14.536;2023-05-07T14:07:43;2.50;;;2.30;;
42846;SDS011;28495;49.916;14.536;2023-05-07T14:13:03;3.67;;;3.10;;
42846;SDS011;28495;49.916;14.536;2023-05-07T14:18:24;4.72;;;3.03;;
42846;SDS011;28495;49.916;14.536;2023-05-07T14:23:45;9.20;;;3.35;;
42846;SDS011;28495;49.916;14.536;2023-05-07T14:29:07;3.85;;;3.33;;
42846;SDS011;28495;49.916;14.536;2023-05-07T14:34:27;4.47;;;3.10;;
42846;SDS011;28495;49.916;14.536;2023-05-07T14:39:48;2.67;;;2.47;;
42846;SDS011;28495;49.916;14.536;2023-05-07T14:45:12;4.60;;;2.85;;
42846;SDS011;28495;49.916;14.536;2023-05-07T14:50:33;4.28;;;3.88;;
42846;SDS011;28495;49.916;14.536;2023-05-07T14:55:54;4.82;;;3.78;;
42846;SDS011;28495;49.916;14.536;2023-05-07T15:01:15;4.68;;;4.15;;
42846;SDS011;28495;49.916;14.536;2023-05-07T15:06:36;5.85;;;4.15;;
42846;SDS011;28495;49.916;14.536;2023-05-07T15:11:57;4.30;;;3.70;;
42846;SDS011;28495;49.916;14.536;2023-05-07T15:17:18;3.58;;;2.97;;
42846;SDS011;28495;49.916;14.536;2023-05-07T15:22:42;3.15;;;2.83;;
42846;SDS011;28495;49.916;14.536;2023-05-07T15:28:06;3.00;;;2.38;;
42846;SDS011;28495;49.916;14.536;2023-05-07T15:33:27;3.17;;;2.88;;
42846;SDS011;28495;49.916;14.536;2023-05-07T15:38:48;3.42;;;2.60;;
42846;SDS011;28495;49.916;14.536;2023-05-07T15:44:09;2.90;;;2.47;;
42846;SDS011;28495;49.916;14.536;2023-05-07T15:49:30;4.25;;;2.97;;
42846;SDS011;28495;49.916;14.536;2023-05-07T15:54:52;3.58;;;2.75;;
42846;SDS011;28495;49.916;14.536;2023-05-07T16:00:13;2.30;;;2.10;;
42846;SDS011;28495;49.916;14.536;2023-05-07T16:05:36;2.72;;;2.50;;
42846;SDS011;28495;49.916;14.536;2023-05-07T16:10:58;3.10;;;2.65;;
42846;SDS011;28495;49.916;14.536;2023-05-07T16:16:19;2.90;;;2.60;;
42846;SDS011;28495;49.916;14.536;2023-05-07T16:21:40;3.50;;;2.60;;
42846;SDS011;28495;49.916;14.536;2023-05-07T16:27:01;3.25;;;2.95;;
42846;SDS011;28495;49.916;14.536;2023-05-07T16:32:22;3.13;;;2.83;;
42846;SDS011;28495;49.916;14.536;2023-05-07T16:37:43;4.53;;;3.03;;
42846;SDS011;28495;49.916;14.536;2023-05-07T16:43:04;4.40;;;3.40;;
42846;SDS011;28495;49.916;14.536;2023-05-07T16:48:29;4.55;;;3.50;;
42846;SDS011;28495;49.916;14.536;2023-05-07T16:53:50;4.13;;;3.22;;
42846;SDS011;28495;49.916;14.536;2023-05-07T16:59:12;4.15;;;3.40;;
42846;SDS011;28495;49.916;14.536;2023-05-07T17:04:33;4.20;;;3.58;;
42846;SDS011;28495;49.916;14.536;2023-05-07T17:09:56;5.65;;;3.90;;
42846;SDS011;28495;49.916;14.536;2023-05-07T17:15:17;3.92;;;3.30;;
42846;SDS011;28495;49.916;14.536;2023-05-07T17:20:38;4.25;;;3.65;;
42846;SDS011;28495;49.916;14.536;2023-05-07T17:25:59;4.63;;;3.20;;
42846;SDS011;28495;49.916;14.536;2023-05-07T17:31:20;3.65;;;3.30;;
42846;SDS011;28495;49.916;14.536;2023-05-07T17:36:41;4.13;;;3.20;;
42846;SDS011;28495;49.916;14.536;2023-05-07T17:42:03;4.85;;;3.60;;
42846;SDS011;28495;49.916;14.536;2023-05-07T17:47:24;3.80;;;2.88;;
42846;SDS011;28495;49.916;14.536;2023-05-07T17:52:45;4.53;;;3.22;;
42846;SDS011;28495;49.916;14.536;2023-05-07T17:58:07;4.28;;;3.15;;
42846;SDS011;28495;49.916;14.536;2023-05-07T18:03:29;4.50;;;3.42;;
42846;SDS011;28495;49.916;14.536;2023-05-07T18:08:51;4.05;;;3.15;;
42846;SDS011;28495;49.916;14.536;2023-05-07T18:14:13;5.22;;;3.55;;
42846;SDS011;28495;49.916;14.536;2023-05-07T18:19:34;5.07;;;3.63;;
42846;SDS011;28495;49.916;14.536;2023-05-07T18:24:56;3.60;;;3.20;;
42846;SDS011;28495;49.916;14.536;2023-05-07T18:30:17;6.40;;;3.85;;
42846;SDS011;28495;49.916;14.536;2023-05-07T18:35:38;4.53;;;3.35;;
42846;SDS011;28495;49.916;14.536;2023-05-07T18:40:59;3.67;;;3.05;;
42846;SDS011;28495;49.916;14.536;2023-05-07T18:46:24;4.95;;;3.17;;
42846;SDS011;28495;49.916;14.536;2023-05-07T18:51:45;4.55;;;3.83;;
42846;SDS011;28495;49.916;14.536;2023-05-07T18:57:06;3.40;;;2.90;;
42846;SDS011;28495;49.916;14.536;2023-05-07T19:02:27;4.22;;;3.15;;
42846;SDS011;28495;49.916;14.536;2023-05-07T19:07:48;5.53;;;3.63;;
42846;SDS011;28495;49.916;14.536;2023-05-07T19:13:10;5.72;;;3.78;;
42846;SDS011;28495;49.916;14.536;2023-05-07T19:18:32;5.05;;;3.38;;
42846;SDS011;28495;49.916;14.536;2023-05-07T19:23:53;4.25;;;3.20;;
42846;SDS011;28495;49.916;14.536;2023-05-07T19:29:17;4.90;;;3.67;;
42846;SDS011;28495;49.916;14.536;2023-05-07T19:34:38;5.03;;;4.10;;
42846;SDS011;28495;49.916;14.536;2023-05-07T19:39:58;6.45;;;4.15;;
42846;SDS011;28495;49.916;14.536;2023-05-07T19:45:25;5.05;;;3.78;;
42846;SDS011;28495;49.916;14.536;2023-05-07T19:50:46;4.70;;;3.63;;
42846;SDS011;28495;49.916;14.536;2023-05-07T19:56:09;4.75;;;3.67;;
42846;SDS011;28495;49.916;14.536;2023-05-07T20:01:31;5.70;;;4.03;;
42846;SDS011;28495;49.916;14.536;2023-05-07T20:06:53;5.70;;;4.18;;
42846;SDS011;28495;49.916;14.536;2023-05-07T20:12:14;4.63;;;3.60;;
42846;SDS011;28495;49.916;14.536;2023-05-07T20:17:37;6.32;;;3.70;;
42846;SDS011;28495;49.916;14.536;2023-05-07T20:22:58;7.82;;;4.30;;
42846;SDS011;28495;49.916;14.536;2023-05-07T20:28:19;7.32;;;4.00;;
42846;SDS011;28495;49.916;14.536;2023-05-07T20:33:41;5.78;;;4.30;;
42846;SDS011;28495;49.916;14.536;2023-05-07T20:39:02;5.35;;;4.20;;
42846;SDS011;28495;49.916;14.536;2023-05-07T20:44:23;5.53;;;4.45;;
42846;SDS011;28495;49.916;14.536;2023-05-07T20:49:50;7.40;;;4.45;;
42846;SDS011;28495;49.916;14.536;2023-05-07T20:55:13;6.72;;;4.65;;
42846;SDS011;28495;49.916;14.536;2023-05-07T21:00:33;7.25;;;4.90;;
42846;SDS011;28495;49.916;14.536;2023-05-07T21:05:55;9.40;;;5.10;;
42846;SDS011;28495;49.916;14.536;2023-05-07T21:11:17;4.95;;;4.25;;
42846;SDS011;28495;49.916;14.536;2023-05-07T21:16:38;8.80;;;5.45;;
42846;SDS011;28495;49.916;14.536;2023-05-07T21:22:00;7.45;;;5.65;;
42846;SDS011;28495;49.916;14.536;2023-05-07T21:27:21;5.97;;;4.70;;
42846;SDS011;28495;49.916;14.536;2023-05-07T21:32:42;6.50;;;4.20;;
42846;SDS011;28495;49.916;14.536;2023-05-07T21:38:04;7.07;;;4.05;;
42846;SDS011;28495;49.916;14.536;2023-05-07T21:43:24;6.13;;;4.53;;
42846;SDS011;28495;49.916;14.536;2023-05-07T21:48:45;6.43;;;4.95;;
42846;SDS011;28495;49.916;14.536;2023-05-07T21:54:07;6.05;;;4.53;;
42846;SDS011;28495;49.916;14.536;2023-05-07T21:59:28;6.93;;;4.78;;
42846;SDS011;28495;49.916;14.536;2023-05-07T22:04:48;6.38;;;4.65;;
42846;SDS011;28495;49.916;14.536;2023-05-07T22:10:10;5.10;;;4.50;;
42846;SDS011;28495;49.916;14.536;2023-05-07T22:15:31;5.78;;;4.30;;
42846;SDS011;28495;49.916;14.536;2023-05-07T22:20:56;5.35;;;4.10;;
42846;SDS011;28495;49.916;14.536;2023-05-07T22:26:17;4.47;;;3.55;;
42846;SDS011;28495;49.916;14.536;2023-05-07T22:31:38;4.40;;;3.40;;
42846;SDS011;28495;49.916;14.536;2023-05-07T22:36:59;7.43;;;3.63;;
42846;SDS011;28495;49.916;14.536;2023-05-07T22:42:19;4.35;;;3.88;;
42846;SDS011;28495;49.916;14.536;2023-05-07T22:47:40;4.53;;;3.38;;
42846;SDS011;28495;49.916;14.536;2023-05-07T22:53:01;4.28;;;3.65;;
42846;SDS011;28495;49.916;14.536;2023-05-07T22:58:22;3.85;;;3.28;;
42846;SDS011;28495;49.916;14.536;2023-05-07T23:03:43;6.15;;;3.42;;
42846;SDS011;28495;49.916;14.536;2023-05-07T23:09:04;3.92;;;2.92;;
42846;SDS011;28495;49.916;14.536;2023-05-07T23:14:25;4.20;;;3.28;;
42846;SDS011;28495;49.916;14.536;2023-05-07T23:19:46;4.60;;;3.00;;
42846;SDS011;28495;49.916;14.536;2023-05-07T23:25:07;4.70;;;3.50;;
42846;SDS011;28495;49.916;14.536;2023-05-07T23:30:29;4.47;;;3.47;;
42846;SDS011;28495;49.916;14.536;2023-05-07T23:35:57;4.53;;;3.80;;
42846;SDS011;28495;49.916;14.536;2023-05-07T23:41:21;4.55;;;3.90;;
42846;SDS011;28495;49.916;14.536;2023-05-07T23:46:42;6.47;;;4.32;;
42846;SDS011;28495;49.916;14.536;2023-05-07T23:52:04;6.07;;;4.53;;
42846;SDS011;28495;49.916;14.536;2023-05-07T23:57:25;4.63;;;4.03;;
